Terminal Aerodrome Forecast
Issued by NWS

Home | Current Version | Previous Version | Text Only | Print | Product List | Glossary On
Versions: 1 2 3 4 5 6 7 8 9 10 11 12 13 14 15 16
000
FTUS42 KGSP 201740
TAFAND
TAF
KAND 201740Z 2018/2118 07004KT 5SM BR OVC008
     FM202300 06004KT 6SM BR OVC015
     FM211000 05003KT 3SM BR OVC010
     FM211300 05003KT 6SM BR OVC015
     FM211700 06005KT P6SM OVC024=

USA.gov is the U.S. government's official web portal to all federal, state and local government web resources and services.